首页
METAR-TAF:

METAR-TAF

机场 :

西安咸阳国际机场

西安, 中华人民共和国

纬度: 34-26N, 经度: 108-45E, 海拔: 479米

当前天气观测

该预报发布于17分钟前的05:00 UTC
风速2节,风向多变
温度 9°C
湿度 76%
气压 1021 hPa
能見度: 1800
阴天层高于6000英尺
轻雾

METAR: ZLXY 140500Z VRB01MPS 1800 BR OVC060 09/05 Q1021 NOSIG

时间: 13:17 (05:17 UTC)

预报

该预报发布于10小时和14分钟前的19:03 UTC
预报有效从14日的 00点(UTC)到 14日的 24点(UTC)
风速6节,风向东转东北
能見度: 2000
轻雾

TAF: ZLXY 131903Z 1400/1424 06003MPS 2000 BR NSC TX11/1407Z TN05/1423Z

超过4000个机场的气象观测和天气预报(METAR&TAF报告)。

可查询的气象台以黄色和红色小点在地图上表示。

将鼠标移到小点上方,可查看气象台名称。

然后点击查看天气观测和预报。

如需切换地图:点击带黑十字的绿色按钮放大地图;点击带横线的绿色按钮缩小地图;或者点击绿色箭头查看邻近地区的地图。


METAR-TAF: